Time;durP1;ratioP1;P1;durP2;ratioP2;P2;SDS_P1;SDS_P2;PMS_P1;PMS_P2;Temp;Humidity;BMP_temperature;BMP_pressure;BME280_temperature;BME280_humidity;BME280_pressure;Samples;Min_cycle;Max_cycle;Signal;HPM_P1;HPM_P2
2023/03/12 00:01:24;;;;;;;47.22;14.23;;;;;;;;;;4966607;28;20046;-65
2023/03/12 00:03:50;;;;;;;21.10;9.23;;;;;;;;;;4964503;28;20042;-63
2023/03/12 00:06:16;;;;;;;14.32;7.30;;;;;;;;;;4971619;28;20046;-64
2023/03/12 00:08:42;;;;;;;15.43;7.35;;;;;;;;;;4969034;28;20061;-64
2023/03/12 00:11:10;;;;;;;18.17;8.68;;;;;;;;;;4965997;28;20034;-57
2023/03/12 00:13:36;;;;;;;11.73;7.13;;;;;;;;;;4961386;28;20054;-63
2023/03/12 00:16:13;;;;;;;15.65;7.75;;;;;;;;;;4964374;28;20093;-59
2023/03/12 00:18:39;;;;;;;18.70;8.55;;;;;;;;;;4972894;28;20105;-62
2023/03/12 00:21:06;;;;;;;20.42;7.75;;;;;;;;;;4970626;28;20034;-66
2023/03/12 00:23:31;;;;;;;12.88;8.18;;;;;;;;;;4971760;28;20093;-65
2023/03/12 00:26:02;;;;;;;12.52;7.78;;;;;;;;;;4961610;28;20078;-66
2023/03/12 00:28:28;;;;;;;18.40;8.63;;;;;;;;;;4963874;28;20082;-64
2023/03/12 00:30:53;;;;;;;17.27;8.25;;;;;;;;;;4942837;28;20129;-64
2023/03/12 00:33:18;;;;;;;15.73;8.38;;;;;;;;;;4948899;28;20130;-65
2023/03/12 00:35:45;;;;;;;15.45;7.07;;;;;;;;;;4948118;28;20043;-66
2023/03/12 00:38:10;;;;;;;16.25;7.38;;;;;;;;;;4963200;28;20509;-65
2023/03/12 00:40:36;;;;;;;14.73;6.30;;;;;;;;;;4963490;28;20049;-66
2023/03/12 00:43:01;;;;;;;9.27;6.25;;;;;;;;;;4961868;28;20179;-63
2023/03/12 00:45:26;;;;;;;8.80;5.85;;;;;;;;;;4945650;28;20129;-64
2023/03/12 00:47:52;;;;;;;12.20;5.57;;;;;;;;;;4963805;28;20058;-64
2023/03/12 00:50:17;;;;;;;11.20;5.47;;;;;;;;;;4963724;28;20053;-63
2023/03/12 00:52:43;;;;;;;8.68;5.72;;;;;;;;;;4957887;28;20057;-64
2023/03/12 00:55:08;;;;;;;8.80;5.50;;;;;;;;;;4958979;28;20087;-64
2023/03/12 00:57:34;;;;;;;14.93;6.35;;;;;;;;;;4961234;28;20050;-63
2023/03/12 00:59:59;;;;;;;9.82;6.38;;;;;;;;;;4954953;28;20043;-62
2023/03/12 01:02:24;;;;;;;12.07;6.70;;;;;;;;;;4943629;28;20053;-65
2023/03/12 01:04:50;;;;;;;9.88;6.28;;;;;;;;;;4942496;28;20057;-65
2023/03/12 01:07:15;;;;;;;15.25;6.97;;;;;;;;;;4943645;28;20071;-64
2023/03/12 01:09:41;;;;;;;8.82;6.20;;;;;;;;;;4945977;28;20039;-63
2023/03/12 01:12:06;;;;;;;10.15;6.10;;;;;;;;;;4961465;28;20042;-61
2023/03/12 01:14:32;;;;;;;9.98;5.68;;;;;;;;;;4949109;28;20092;-62
2023/03/12 01:16:57;;;;;;;8.10;5.22;;;;;;;;;;4961132;28;20043;-64
2023/03/12 01:19:23;;;;;;;8.70;5.95;;;;;;;;;;4961575;28;20884;-63
2023/03/12 01:21:48;;;;;;;8.20;5.32;;;;;;;;;;4960381;28;20093;-63
2023/03/12 01:24:14;;;;;;;8.45;5.07;;;;;;;;;;4941742;28;20039;-67
2023/03/12 01:26:39;;;;;;;9.27;4.72;;;;;;;;;;4971673;28;20171;-66
2023/03/12 01:29:04;;;;;;;6.90;3.78;;;;;;;;;;4959683;28;20068;-65
2023/03/12 01:31:30;;;;;;;8.02;3.80;;;;;;;;;;4949157;28;20536;-64
2023/03/12 01:33:56;;;;;;;5.95;4.13;;;;;;;;;;4970509;28;20125;-65
2023/03/12 01:36:25;;;;;;;4.68;3.50;;;;;;;;;;4969470;28;20039;-64
2023/03/12 01:38:53;;;;;;;6.18;3.70;;;;;;;;;;4964588;28;20069;-65
2023/03/12 01:41:19;;;;;;;4.38;3.33;;;;;;;;;;4965069;28;20065;-65
2023/03/12 01:43:45;;;;;;;5.30;3.63;;;;;;;;;;4947291;28;20105;-66
2023/03/12 01:46:27;;;;;;;6.22;3.40;;;;;;;;;;4956280;28;20057;-64
2023/03/12 01:49:09;;;;;;;3.97;3.15;;;;;;;;;;4946488;28;20050;-67
2023/03/12 01:51:56;;;;;;;4.03;3.22;;;;;;;;;;4947711;28;20106;-67
2023/03/12 01:54:29;;;;;;;4.15;3.40;;;;;;;;;;4964276;28;20043;-66
2023/03/12 01:56:56;;;;;;;9.77;4.50;;;;;;;;;;4947172;28;20054;-63
2023/03/12 02:00:00;;;;;;;15.73;5.75;;;;;;;;;;4947667;28;20133;-62
2023/03/12 02:02:27;;;;;;;12.38;3.85;;;;;;;;;;4917518;28;20050;-64
2023/03/12 02:05:05;;;;;;;4.63;3.60;;;;;;;;;;4953384;28;20042;-62
2023/03/12 02:07:33;;;;;;;5.18;4.05;;;;;;;;;;4972545;28;20062;-64
2023/03/12 02:09:58;;;;;;;4.55;3.42;;;;;;;;;;4948627;28;20054;-64
2023/03/12 02:12:23;;;;;;;8.05;4.15;;;;;;;;;;4946543;28;20038;-67
2023/03/12 02:14:49;;;;;;;4.88;3.17;;;;;;;;;;4945346;28;20050;-66
2023/03/12 02:17:15;;;;;;;5.68;3.33;;;;;;;;;;4947225;28;20053;-64
2023/03/12 02:19:49;;;;;;;3.97;3.05;;;;;;;;;;4966891;28;20065;-63
2023/03/12 02:22:14;;;;;;;4.03;3.05;;;;;;;;;;4963663;28;20045;-63
2023/03/12 02:24:40;;;;;;;7.90;3.83;;;;;;;;;;4949182;28;20050;-69
2023/03/12 02:27:08;;;;;;;4.93;3.72;;;;;;;;;;4947286;28;20079;-65
2023/03/12 02:29:36;;;;;;;4.95;3.50;;;;;;;;;;4945469;28;20070;-64
2023/03/12 02:32:05;;;;;;;7.47;3.83;;;;;;;;;;4946470;28;20133;-62
2023/03/12 02:34:31;;;;;;;8.02;3.30;;;;;;;;;;4949785;28;20062;-63
2023/03/12 02:36:57;;;;;;;6.93;3.50;;;;;;;;;;4947067;28;20046;-65
2023/03/12 02:39:22;;;;;;;8.85;3.40;;;;;;;;;;4963161;28;20386;-66
2023/03/12 02:41:54;;;;;;;3.33;2.95;;;;;;;;;;4959653;28;20043;-66
2023/03/12 02:44:26;;;;;;;4.50;3.35;;;;;;;;;;4946800;28;20049;-65
2023/03/12 02:46:57;;;;;;;7.57;3.40;;;;;;;;;;4945284;28;20714;-66
2023/03/12 02:49:26;;;;;;;5.30;3.42;;;;;;;;;;4947876;28;20035;-66
2023/03/12 02:51:53;;;;;;;6.38;3.63;;;;;;;;;;4946800;28;20045;-64
2023/03/12 02:54:19;;;;;;;11.88;3.67;;;;;;;;;;4945610;28;20039;-66
2023/03/12 02:56:46;;;;;;;4.28;3.85;;;;;;;;;;4945146;28;20058;-65
2023/03/12 02:59:13;;;;;;;7.93;3.00;;;;;;;;;;4963605;28;20046;-64
2023/03/12 03:01:41;;;;;;;6.97;3.70;;;;;;;;;;4945315;28;20053;-65
2023/03/12 03:04:09;;;;;;;5.22;4.03;;;;;;;;;;4944635;28;20051;-65
2023/03/12 03:06:38;;;;;;;7.13;3.90;;;;;;;;;;4963148;28;20057;-67
2023/03/12 03:09:04;;;;;;;8.15;4.32;;;;;;;;;;4949586;28;20118;-68
2023/03/12 03:11:29;;;;;;;7.07;3.42;;;;;;;;;;4956248;28;20061;-65
2023/03/12 03:13:55;;;;;;;6.13;3.60;;;;;;;;;;4967633;28;20607;-66
2023/03/12 03:16:22;;;;;;;4.65;3.10;;;;;;;;;;4955273;28;20043;-64
2023/03/12 03:18:48;;;;;;;4.40;3.55;;;;;;;;;;4952993;28;20046;-66
2023/03/12 03:21:15;;;;;;;4.93;3.42;;;;;;;;;;4970689;28;20593;-66
2023/03/12 03:23:43;;;;;;;5.75;3.42;;;;;;;;;;4956516;28;20047;-64
2023/03/12 03:26:09;;;;;;;4.45;3.58;;;;;;;;;;4967062;28;20046;-61
2023/03/12 03:28:34;;;;;;;5.43;3.53;;;;;;;;;;4945951;28;20058;-60
2023/03/12 03:31:00;;;;;;;6.03;3.63;;;;;;;;;;4945065;28;20055;-61
2023/03/12 03:33:29;;;;;;;4.10;3.30;;;;;;;;;;4945162;28;20050;-64
2023/03/12 03:35:58;;;;;;;5.70;3.20;;;;;;;;;;4965698;28;21122;-67
2023/03/12 03:38:25;;;;;;;6.20;3.88;;;;;;;;;;4945331;28;20098;-61
2023/03/12 03:40:51;;;;;;;5.65;3.33;;;;;;;;;;4944412;28;20468;-60
2023/03/12 03:43:17;;;;;;;6.40;3.58;;;;;;;;;;4962544;28;20043;-68
2023/03/12 03:45:43;;;;;;;4.40;3.10;;;;;;;;;;4943522;28;20141;-66
2023/03/12 03:48:10;;;;;;;7.35;3.03;;;;;;;;;;4960583;28;20129;-65
2023/03/12 03:50:37;;;;;;;5.57;3.35;;;;;;;;;;4962552;28;20040;-64
2023/03/12 03:53:04;;;;;;;6.18;3.40;;;;;;;;;;4962012;28;20481;-64
2023/03/12 03:55:30;;;;;;;4.15;3.53;;;;;;;;;;4944333;28;20104;-65
2023/03/12 03:57:55;;;;;;;6.63;3.53;;;;;;;;;;4961385;28;20050;-63
2023/03/12 04:00:21;;;;;;;4.40;2.75;;;;;;;;;;4950527;28;20043;-63
2023/03/12 04:02:50;;;;;;;5.80;3.53;;;;;;;;;;4957441;28;20043;-62
2023/03/12 04:05:18;;;;;;;3.47;2.70;;;;;;;;;;4961744;28;20793;-61
2023/03/12 04:07:44;;;;;;;3.40;2.75;;;;;;;;;;4947632;28;20054;-63
2023/03/12 04:10:10;;;;;;;6.20;3.15;;;;;;;;;;4944768;28;20210;-62
2023/03/12 04:12:36;;;;;;;3.53;3.00;;;;;;;;;;4962071;28;20127;-59
2023/03/12 04:15:04;;;;;;;9.13;5.40;;;;;;;;;;4957990;28;20080;-61
2023/03/12 04:17:30;;;;;;;4.70;3.30;;;;;;;;;;4944546;28;20055;-62
2023/03/12 04:19:56;;;;;;;6.75;3.22;;;;;;;;;;4943551;28;20094;-65
2023/03/12 04:22:22;;;;;;;4.88;3.25;;;;;;;;;;4945382;28;20046;-63
2023/03/12 04:24:47;;;;;;;5.63;3.47;;;;;;;;;;4963434;28;20054;-63
2023/03/12 04:27:13;;;;;;;9.48;3.75;;;;;;;;;;4943981;28;20058;-63
2023/03/12 04:29:39;;;;;;;6.75;3.53;;;;;;;;;;4947192;28;20057;-60
2023/03/12 04:32:06;;;;;;;5.03;3.22;;;;;;;;;;4944821;28;20057;-62
2023/03/12 04:34:32;;;;;;;4.55;3.40;;;;;;;;;;4943402;28;20043;-65
2023/03/12 04:37:02;;;;;;;7.75;3.60;;;;;;;;;;4946065;28;20445;-63
2023/03/12 04:39:28;;;;;;;5.30;3.63;;;;;;;;;;4944121;28;20046;-64
2023/03/12 04:41:53;;;;;;;6.15;3.65;;;;;;;;;;4942724;28;20038;-64
2023/03/12 04:44:19;;;;;;;8.30;3.22;;;;;;;;;;4945576;28;20569;-64
2023/03/12 04:46:44;;;;;;;5.45;3.80;;;;;;;;;;4960838;28;20514;-66
2023/03/12 04:49:13;;;;;;;6.32;3.72;;;;;;;;;;4943612;28;20476;-64
2023/03/12 04:51:41;;;;;;;8.52;3.40;;;;;;;;;;4946998;28;20596;-65
2023/03/12 04:54:06;;;;;;;4.10;3.22;;;;;;;;;;4957548;28;20047;-60
2023/03/12 04:56:33;;;;;;;7.03;3.20;;;;;;;;;;4952468;28;20142;-62
2023/03/12 04:58:59;;;;;;;6.80;3.42;;;;;;;;;;4944237;28;20126;-66
2023/03/12 05:01:35;;;;;;;5.38;3.70;;;;;;;;;;4950161;28;20502;-66
2023/03/12 05:04:05;;;;;;;6.10;3.85;;;;;;;;;;4954692;28;20049;-66
2023/03/12 05:06:32;;;;;;;4.63;3.05;;;;;;;;;;4954998;28;20051;-65
2023/03/12 05:08:58;;;;;;;7.32;3.55;;;;;;;;;;4959752;28;20049;-64
2023/03/12 05:11:23;;;;;;;5.85;3.60;;;;;;;;;;4962561;28;20046;-64
2023/03/12 05:13:49;;;;;;;6.15;3.72;;;;;;;;;;4951383;28;20108;-63
2023/03/12 05:16:15;;;;;;;6.30;3.85;;;;;;;;;;4942850;28;20175;-64
2023/03/12 05:18:42;;;;;;;8.88;3.60;;;;;;;;;;4960085;28;20043;-69
2023/03/12 05:21:12;;;;;;;6.60;3.97;;;;;;;;;;4942912;28;20085;-61
2023/03/12 05:23:41;;;;;;;4.32;3.60;;;;;;;;;;4943235;28;20161;-65
2023/03/12 05:26:22;;;;;;;8.73;4.05;;;;;;;;;;4963701;28;20042;-66
2023/03/12 05:28:49;;;;;;;6.22;4.00;;;;;;;;;;4944120;28;20087;-64
2023/03/12 05:31:17;;;;;;;6.50;3.92;;;;;;;;;;4943173;28;20153;-65
2023/03/12 05:33:43;;;;;;;5.40;4.25;;;;;;;;;;4943129;28;20137;-67
2023/03/12 05:36:09;;;;;;;5.18;3.67;;;;;;;;;;4963527;28;20126;-64
2023/03/12 05:38:35;;;;;;;6.25;4.00;;;;;;;;;;4955296;28;20051;-66
2023/03/12 05:41:01;;;;;;;5.40;4.15;;;;;;;;;;4942753;28;20134;-67
2023/03/12 05:43:30;;;;;;;6.15;4.15;;;;;;;;;;4953427;28;20199;-68
2023/03/12 05:46:00;;;;;;;6.65;3.92;;;;;;;;;;4942923;28;20087;-68
2023/03/12 05:48:26;;;;;;;5.47;3.53;;;;;;;;;;4955449;28;20046;-66
2023/03/12 05:50:53;;;;;;;4.45;3.50;;;;;;;;;;4945277;28;20142;-63
2023/03/12 05:53:18;;;;;;;6.40;3.85;;;;;;;;;;4942635;28;20041;-67
2023/03/12 05:55:45;;;;;;;6.72;3.88;;;;;;;;;;4942635;28;20067;-65
2023/03/12 05:58:11;;;;;;;5.10;3.55;;;;;;;;;;4961992;28;20055;-65
2023/03/12 06:00:37;;;;;;;3.97;3.58;;;;;;;;;;4964135;28;20050;-66
2023/03/12 06:03:04;;;;;;;7.50;4.25;;;;;;;;;;4941208;28;20585;-65
2023/03/12 06:05:32;;;;;;;5.30;4.13;;;;;;;;;;4944205;28;20051;-66
2023/03/12 06:07:58;;;;;;;6.05;4.25;;;;;;;;;;4976447;28;20117;-64
2023/03/12 06:10:24;;;;;;;8.73;4.13;;;;;;;;;;4966843;28;20049;-64
2023/03/12 06:12:49;;;;;;;8.38;4.15;;;;;;;;;;4946904;28;20055;-64
2023/03/12 06:15:15;;;;;;;7.50;4.93;;;;;;;;;;4947852;28;20183;-63
2023/03/12 06:17:41;;;;;;;6.10;4.47;;;;;;;;;;4942555;28;20565;-66
2023/03/12 06:20:07;;;;;;;9.50;4.68;;;;;;;;;;4942007;28;20051;-65
2023/03/12 06:22:33;;;;;;;6.25;4.70;;;;;;;;;;4944457;28;20039;-65
2023/03/12 06:24:58;;;;;;;6.97;4.25;;;;;;;;;;4947875;28;20053;-66
2023/03/12 06:27:24;;;;;;;6.68;4.18;;;;;;;;;;4951204;28;20580;-63
2023/03/12 06:29:50;;;;;;;6.45;4.50;;;;;;;;;;4969427;28;20141;-67
2023/03/12 06:32:17;;;;;;;6.32;4.45;;;;;;;;;;4970696;28;20155;-68
2023/03/12 06:34:42;;;;;;;6.75;4.30;;;;;;;;;;4962176;28;20504;-66
2023/03/12 06:37:08;;;;;;;4.80;3.78;;;;;;;;;;4946144;28;20516;-66
2023/03/12 06:39:33;;;;;;;7.03;4.30;;;;;;;;;;4968782;28;20145;-69
2023/03/12 06:41:59;;;;;;;6.47;4.18;;;;;;;;;;4965457;28;20046;-65
2023/03/12 06:44:24;;;;;;;7.68;4.65;;;;;;;;;;4975710;28;20414;-67
2023/03/12 06:46:51;;;;;;;6.38;4.35;;;;;;;;;;4957251;28;20047;-65
2023/03/12 06:49:16;;;;;;;6.80;4.38;;;;;;;;;;4962657;28;20046;-63
2023/03/12 06:51:42;;;;;;;7.50;4.90;;;;;;;;;;4945479;28;20038;-62
2023/03/12 06:54:07;;;;;;;8.90;5.28;;;;;;;;;;4965529;28;20525;-64
2023/03/12 06:56:33;;;;;;;9.93;4.97;;;;;;;;;;4962967;28;20086;-62
2023/03/12 06:58:58;;;;;;;7.75;4.78;;;;;;;;;;4962548;28;20046;-65
2023/03/12 07:01:24;;;;;;;6.68;4.55;;;;;;;;;;4968722;28;20408;-66
2023/03/12 07:03:49;;;;;;;9.68;4.63;;;;;;;;;;4968987;28;20412;-65
2023/03/12 07:06:17;;;;;;;9.50;4.93;;;;;;;;;;4970789;28;20548;-67
2023/03/12 07:08:43;;;;;;;8.18;4.75;;;;;;;;;;4969260;28;20049;-70
2023/03/12 07:11:09;;;;;;;7.72;5.18;;;;;;;;;;4971408;28;20054;-67
2023/03/12 07:13:35;;;;;;;7.28;5.10;;;;;;;;;;4970436;28;20177;-67
2023/03/12 07:16:01;;;;;;;6.70;4.95;;;;;;;;;;4968164;28;20403;-66
2023/03/12 07:18:27;;;;;;;8.38;4.90;;;;;;;;;;4951115;28;20042;-66
2023/03/12 07:20:53;;;;;;;6.75;4.72;;;;;;;;;;4961706;28;20043;-66
2023/03/12 07:23:19;;;;;;;8.05;5.00;;;;;;;;;;4967014;28;20523;-67
2023/03/12 07:25:44;;;;;;;9.10;5.35;;;;;;;;;;4965986;28;20465;-65
2023/03/12 07:28:11;;;;;;;11.70;5.07;;;;;;;;;;4963271;28;21082;-65
2023/03/12 07:30:36;;;;;;;7.10;4.90;;;;;;;;;;4961928;28;20058;-65
2023/03/12 07:33:03;;;;;;;7.07;4.97;;;;;;;;;;4961132;28;20134;-66
2023/03/12 07:35:30;;;;;;;7.82;5.18;;;;;;;;;;4960915;28;20049;-65
2023/03/12 07:37:56;;;;;;;6.60;5.47;;;;;;;;;;4956766;28;20529;-65
2023/03/12 07:40:22;;;;;;;8.30;5.00;;;;;;;;;;4945832;28;20061;-65
2023/03/12 07:42:49;;;;;;;7.80;5.50;;;;;;;;;;4961437;28;20198;-66
2023/03/12 07:45:15;;;;;;;11.93;6.10;;;;;;;;;;4958295;28;20551;-65
2023/03/12 07:47:40;;;;;;;6.88;5.97;;;;;;;;;;4966564;28;20108;-67
2023/03/12 07:50:06;;;;;;;6.80;5.35;;;;;;;;;;4962706;28;20604;-65
2023/03/12 07:52:31;;;;;;;6.47;5.78;;;;;;;;;;4960847;28;20485;-67
2023/03/12 07:54:57;;;;;;;8.23;5.72;;;;;;;;;;4944018;28;20077;-65
2023/03/12 07:57:23;;;;;;;7.88;6.90;;;;;;;;;;4957709;28;20046;-66
2023/03/12 07:59:49;;;;;;;8.90;6.18;;;;;;;;;;4958028;28;20047;-68
2023/03/12 08:02:14;;;;;;;8.13;5.75;;;;;;;;;;4960335;28;20051;-67
2023/03/12 08:04:39;;;;;;;7.38;5.75;;;;;;;;;;4960780;28;20054;-67
2023/03/12 08:07:05;;;;;;;5.80;4.70;;;;;;;;;;4958187;28;20517;-69
2023/03/12 08:09:32;;;;;;;6.00;3.33;;;;;;;;;;4963609;28;21673;-67
2023/03/12 08:11:57;;;;;;;6.80;3.78;;;;;;;;;;4967816;28;20132;-69
2023/03/12 08:14:23;;;;;;;4.53;3.33;;;;;;;;;;4964823;28;20955;-69
2023/03/12 08:16:48;;;;;;;5.40;3.33;;;;;;;;;;4965378;28;20042;-67
2023/03/12 08:19:15;;;;;;;5.00;3.25;;;;;;;;;;4965316;28;20097;-67
2023/03/12 08:21:41;;;;;;;5.03;3.58;;;;;;;;;;4964341;28;20149;-66
2023/03/12 08:24:06;;;;;;;11.18;4.05;;;;;;;;;;4968770;28;20484;-67
2023/03/12 08:26:32;;;;;;;5.50;4.30;;;;;;;;;;4964832;28;20516;-68
2023/03/12 08:28:59;;;;;;;4.85;3.78;;;;;;;;;;4964251;28;20047;-64
2023/03/12 08:31:26;;;;;;;8.32;3.80;;;;;;;;;;4965097;28;20045;-68
2023/03/12 08:33:52;;;;;;;4.60;3.47;;;;;;;;;;4962217;28;20069;-68
2023/03/12 08:36:17;;;;;;;6.50;3.25;;;;;;;;;;4964701;28;20939;-66
2023/03/12 08:38:43;;;;;;;7.90;4.07;;;;;;;;;;4949504;28;20050;-69
2023/03/12 08:41:09;;;;;;;6.78;3.97;;;;;;;;;;4957926;28;20054;-67
2023/03/12 08:43:34;;;;;;;6.45;4.55;;;;;;;;;;4956538;28;20030;-71
2023/03/12 08:46:01;;;;;;;10.80;5.50;;;;;;;;;;4957536;28;20082;-71
2023/03/12 08:48:31;;;;;;;6.93;3.70;;;;;;;;;;4960494;28;20121;-71
2023/03/12 08:50:58;;;;;;;5.00;3.65;;;;;;;;;;4960670;28;20478;-71
2023/03/12 08:53:25;;;;;;;7.40;3.83;;;;;;;;;;4956243;28;20141;-71
2023/03/12 08:55:54;;;;;;;5.22;3.80;;;;;;;;;;4957604;28;20051;-71
2023/03/12 08:58:21;;;;;;;5.00;3.80;;;;;;;;;;4950489;28;20102;-69
2023/03/12 09:00:46;;;;;;;5.45;3.60;;;;;;;;;;4961274;28;20413;-71
2023/03/12 09:03:13;;;;;;;5.60;3.08;;;;;;;;;;4960232;28;20114;-71
2023/03/12 09:05:40;;;;;;;4.72;3.33;;;;;;;;;;4940872;28;20046;-71
2023/03/12 09:08:05;;;;;;;4.70;3.47;;;;;;;;;;4958840;28;20100;-71
2023/03/12 09:10:31;;;;;;;7.13;3.25;;;;;;;;;;4962478;28;20082;-71
2023/03/12 09:12:57;;;;;;;6.72;3.50;;;;;;;;;;4961525;28;20050;-71
2023/03/12 09:15:22;;;;;;;7.15;3.70;;;;;;;;;;4967086;28;20505;-71
2023/03/12 09:17:47;;;;;;;16.05;3.80;;;;;;;;;;4965245;28;20047;-72
2023/03/12 09:20:13;;;;;;;5.22;3.50;;;;;;;;;;4959392;28;20046;-71
2023/03/12 09:22:39;;;;;;;6.60;3.47;;;;;;;;;;4974157;28;20094;-71
2023/03/12 09:25:06;;;;;;;4.28;2.80;;;;;;;;;;4961431;28;20121;-71
2023/03/12 09:27:40;;;;;;;4.15;2.83;;;;;;;;;;4957538;28;20059;-71
2023/03/12 09:30:07;;;;;;;4.57;2.67;;;;;;;;;;4959219;28;20057;-71
2023/03/12 09:32:33;;;;;;;6.63;2.80;;;;;;;;;;4958281;28;20058;-72
2023/03/12 09:34:58;;;;;;;3.30;2.90;;;;;;;;;;4955670;28;20055;-71
2023/03/12 09:37:24;;;;;;;3.15;2.78;;;;;;;;;;4959679;28;20050;-71
2023/03/12 09:39:51;;;;;;;4.13;2.75;;;;;;;;;;4956748;28;20058;-71
2023/03/12 09:42:41;;;;;;;4.13;2.90;;;;;;;;;;4962160;28;20516;-71
2023/03/12 09:45:16;;;;;;;3.45;2.85;;;;;;;;;;4955342;28;20069;-71
2023/03/12 09:47:53;;;;;;;4.03;3.03;;;;;;;;;;4966439;28;20082;-71
2023/03/12 09:50:28;;;;;;;5.13;3.30;;;;;;;;;;4966680;28;20049;-71
2023/03/12 09:53:10;;;;;;;4.90;3.53;;;;;;;;;;4941583;28;21029;-71
2023/03/12 09:55:37;;;;;;;;;;;;;;;;;;4962876;28;20185;-71
2023/03/12 09:58:03;;;;;;;5.45;3.65;;;;;;;;;;4963146;28;19922;-72
2023/03/12 10:00:32;;;;;;;7.75;3.42;;;;;;;;;;4968237;28;20058;-71
2023/03/12 10:03:03;;;;;;;2.67;2.00;;;;;;;;;;4958887;28;20159;-71
2023/03/12 10:05:32;;;;;;;2.38;2.17;;;;;;;;;;4958896;28;20929;-71
2023/03/12 10:08:32;;;;;;;2.15;2.03;;;;;;;;;;4961401;28;20090;-71
2023/03/12 10:11:04;;;;;;;5.50;2.88;;;;;;;;;;4957072;28;20158;-71
2023/03/12 10:13:33;;;;;;;2.47;2.28;;;;;;;;;;4970933;28;20050;-71
2023/03/12 10:16:37;;;;;;;3.00;2.55;;;;;;;;;;4961941;28;20988;-72
2023/03/12 10:19:11;;;;;;;3.17;2.58;;;;;;;;;;4955208;28;20078;-71
2023/03/12 10:22:00;;;;;;;2.60;2.40;;;;;;;;;;4964131;28;20039;-71
2023/03/12 10:24:55;;;;;;;2.67;2.30;;;;;;;;;;4966324;28;20088;-72
2023/03/12 10:27:25;;;;;;;3.05;2.20;;;;;;;;;;4942675;28;20069;-71
2023/03/12 10:29:52;;;;;;;1.50;1.40;;;;;;;;;;4964755;28;20070;-72
2023/03/12 10:32:39;;;;;;;1.90;1.58;;;;;;;;;;4945669;28;20053;-72
2023/03/12 10:35:18;;;;;;;1.70;1.60;;;;;;;;;;4963461;28;20125;-72
2023/03/12 10:37:57;;;;;;;1.73;1.45;;;;;;;;;;4965963;28;20043;-71
2023/03/12 10:40:32;;;;;;;3.22;1.67;;;;;;;;;;4967109;28;20713;-71
2023/03/12 10:42:58;;;;;;;2.85;2.28;;;;;;;;;;4966527;28;20049;-71
2023/03/12 10:45:33;;;;;;;1.17;1.10;;;;;;;;;;4965762;28;20441;-72
2023/03/12 10:48:07;;;;;;;1.88;1.75;;;;;;;;;;4968805;28;20062;-71
2023/03/12 10:50:35;;;;;;;1.85;1.70;;;;;;;;;;4965611;28;20055;-72
2023/03/12 10:53:25;;;;;;;1.52;1.13;;;;;;;;;;4968519;28;20049;-72
2023/03/12 10:56:09;;;;;;;1.45;1.35;;;;;;;;;;4963312;28;20054;-71
2023/03/12 10:58:42;;;;;;;1.23;1.13;;;;;;;;;;4965290;28;20517;-71
2023/03/12 11:01:21;;;;;;;1.67;1.58;;;;;;;;;;4965323;28;20046;-71
2023/03/12 11:03:46;;;;;;;2.20;2.00;;;;;;;;;;4949359;28;20776;-72
2023/03/12 11:06:29;;;;;;;1.50;1.40;;;;;;;;;;4963261;28;20146;-72
2023/03/12 11:09:13;;;;;;;3.10;2.33;;;;;;;;;;4950189;28;20580;-71
2023/03/12 11:11:39;;;;;;;2.47;2.28;;;;;;;;;;4967848;28;20082;-71
2023/03/12 11:14:07;;;;;;;2.60;2.40;;;;;;;;;;4965434;28;20137;-72
2023/03/12 11:16:32;;;;;;;2.20;2.03;;;;;;;;;;4965116;28;20089;-72
2023/03/12 11:19:00;;;;;;;3.15;2.58;;;;;;;;;;4961901;28;20141;-72
2023/03/12 11:21:27;;;;;;;3.30;3.00;;;;;;;;;;4962819;28;20713;-72
2023/03/12 11:23:55;;;;;;;2.70;2.47;;;;;;;;;;4944590;28;20058;-72
2023/03/12 11:26:34;;;;;;;2.47;2.05;;;;;;;;;;4961317;28;20043;-74
2023/03/12 11:29:38;;;;;;;5.10;3.70;;;;;;;;;;4966905;28;20078;-72
2023/03/12 11:32:17;;;;;;;4.43;4.03;;;;;;;;;;4962207;28;20153;-73
2023/03/12 11:34:48;;;;;;;2.88;2.60;;;;;;;;;;4968608;28;20057;-72
2023/03/12 11:37:25;;;;;;;3.45;2.80;;;;;;;;;;4963001;28;20051;-73
2023/03/12 11:40:08;;;;;;;4.30;3.88;;;;;;;;;;4952477;28;20038;-72
2023/03/12 11:43:09;;;;;;;4.00;3.63;;;;;;;;;;4964573;28;20078;-73
2023/03/12 11:46:12;;;;;;;3.85;3.30;;;;;;;;;;4905601;29;20143;-73
2023/03/12 11:49:16;;;;;;;5.05;3.90;;;;;;;;;;4966065;28;20186;-73
2023/03/12 11:52:03;;;;;;;4.85;4.38;;;;;;;;;;4947011;28;20110;-72
2023/03/12 11:55:10;;;;;;;4.40;3.90;;;;;;;;;;4945323;28;20050;-72
2023/03/12 11:57:48;;;;;;;4.65;3.70;;;;;;;;;;4867874;29;20052;-72
2023/03/12 12:00:58;;;;;;;4.15;3.65;;;;;;;;;;4902784;29;21054;-72
2023/03/12 12:03:47;;;;;;;4.90;4.40;;;;;;;;;;4905876;28;21246;-73
2023/03/12 12:06:41;;;;;;;2.75;2.53;;;;;;;;;;4965911;28;20048;-73
2023/03/12 12:09:17;;;;;;;4.78;3.30;;;;;;;;;;4946324;28;20055;-73
2023/03/12 12:11:55;;;;;;;4.15;3.35;;;;;;;;;;4958515;28;20200;-72
2023/03/12 12:14:35;;;;;;;3.35;2.95;;;;;;;;;;4967199;28;20074;-73
2023/03/12 12:17:06;;;;;;;5.47;3.55;;;;;;;;;;4963844;28;20042;-72
2023/03/12 12:20:15;;;;;;;3.73;3.43;;;;;;;;;;4960835;28;20047;-72
2023/03/12 12:23:09;;;;;;;3.47;3.17;;;;;;;;;;4964889;28;20050;-72
2023/03/12 12:26:06;;;;;;;5.72;4.43;;;;;;;;;;4944365;28;20050;-72
2023/03/12 12:28:43;;;;;;;3.78;3.42;;;;;;;;;;4967392;28;20054;-73
2023/03/12 12:31:30;;;;;;;5.65;4.47;;;;;;;;;;4964904;28;20112;-73
2023/03/12 12:34:37;;;;;;;3.72;3.42;;;;;;;;;;4964485;28;20050;-72
2023/03/12 12:37:36;;;;;;;5.05;4.18;;;;;;;;;;4963695;28;20129;-73
2023/03/12 12:40:20;;;;;;;4.38;3.60;;;;;;;;;;4965136;28;20050;-72
2023/03/12 12:43:01;;;;;;;4.22;3.65;;;;;;;;;;4967535;28;20121;-73
2023/03/12 12:45:28;;;;;;;3.95;3.25;;;;;;;;;;4961822;28;20082;-73
2023/03/12 12:48:05;;;;;;;6.13;3.65;;;;;;;;;;4968474;28;20065;-72
2023/03/12 12:50:35;;;;;;;4.60;4.10;;;;;;;;;;4967390;28;20496;-72
2023/03/12 12:53:20;;;;;;;4.60;3.80;;;;;;;;;;4966249;28;20043;-71
2023/03/12 12:56:07;;;;;;;4.63;4.07;;;;;;;;;;4967126;28;20720;-72
2023/03/12 12:59:02;;;;;;;4.53;3.72;;;;;;;;;;4951688;28;20050;-72
2023/03/12 13:01:29;;;;;;;5.00;4.20;;;;;;;;;;4934044;28;20047;-72
2023/03/12 13:04:01;;;;;;;5.43;4.38;;;;;;;;;;4966978;28;20074;-72
2023/03/12 13:06:28;;;;;;;4.15;3.65;;;;;;;;;;4966913;28;20416;-72
2023/03/12 13:09:00;;;;;;;5.70;4.00;;;;;;;;;;4966685;28;20054;-72
2023/03/12 13:11:39;;;;;;;4.87;4.07;;;;;;;;;;4959369;28;20047;-72
2023/03/12 13:14:04;;;;;;;5.65;4.40;;;;;;;;;;4959983;28;20110;-72
2023/03/12 13:16:35;;;;;;;5.60;4.28;;;;;;;;;;4960489;28;20051;-72
2023/03/12 13:19:07;;;;;;;4.50;3.72;;;;;;;;;;4961206;28;20050;-71
2023/03/12 13:22:03;;;;;;;4.22;3.83;;;;;;;;;;4965029;28;20107;-72
2023/03/12 13:24:44;;;;;;;4.85;3.95;;;;;;;;;;4963021;28;20038;-71
2023/03/12 13:27:28;;;;;;;4.82;3.85;;;;;;;;;;4960324;28;20169;-71
2023/03/12 13:29:57;;;;;;;5.57;3.90;;;;;;;;;;4952394;28;20054;-72
2023/03/12 13:32:35;;;;;;;5.43;4.25;;;;;;;;;;4971245;28;20810;-72
2023/03/12 13:35:26;;;;;;;5.05;4.32;;;;;;;;;;4962236;28;20051;-72
2023/03/12 13:37:51;;;;;;;4.20;3.80;;;;;;;;;;4949205;28;20131;-71
2023/03/12 13:40:29;;;;;;;4.10;3.70;;;;;;;;;;4968461;28;20050;-71
2023/03/12 13:43:06;;;;;;;5.10;4.10;;;;;;;;;;4966093;28;20057;-72
2023/03/12 13:45:34;;;;;;;5.55;4.40;;;;;;;;;;4962739;28;20401;-71
2023/03/12 13:48:01;;;;;;;4.03;3.40;;;;;;;;;;4963702;28;20061;-72
2023/03/12 13:50:41;;;;;;;4.20;3.78;;;;;;;;;;4964942;28;20102;-72
2023/03/12 13:53:14;;;;;;;3.78;3.38;;;;;;;;;;4964475;28;20060;-72
2023/03/12 13:55:45;;;;;;;4.22;3.70;;;;;;;;;;4968526;28;20535;-71
2023/03/12 13:58:20;;;;;;;6.60;4.77;;;;;;;;;;4964954;28;20129;-72
2023/03/12 14:00:48;;;;;;;4.55;3.83;;;;;;;;;;4963313;28;20082;-75
2023/03/12 14:03:28;;;;;;;5.40;4.82;;;;;;;;;;4957033;28;20884;-71
2023/03/12 14:05:57;;;;;;;4.93;4.25;;;;;;;;;;4956686;28;20092;-73
2023/03/12 14:09:00;;;;;;;4.68;4.10;;;;;;;;;;4962254;28;20047;-72
2023/03/12 14:11:53;;;;;;;4.30;3.90;;;;;;;;;;4929685;28;20035;-72
2023/03/12 14:15:00;;;;;;;5.38;4.32;;;;;;;;;;4966999;28;20081;-72
2023/03/12 14:17:29;;;;;;;4.80;4.40;;;;;;;;;;4899633;29;20071;-71
2023/03/12 14:20:13;;;;;;;4.90;4.50;;;;;;;;;;4955490;28;20078;-72
2023/03/12 14:22:43;;;;;;;6.57;4.90;;;;;;;;;;4964472;28;20061;-72
2023/03/12 14:25:16;;;;;;;4.70;4.20;;;;;;;;;;4945105;28;20491;-71
2023/03/12 14:27:46;;;;;;;5.35;4.45;;;;;;;;;;4964392;28;20050;-72
2023/03/12 14:30:21;;;;;;;4.90;4.20;;;;;;;;;;4949608;28;20130;-71
2023/03/12 14:32:48;;;;;;;6.13;4.85;;;;;;;;;;4968604;28;20050;-74
2023/03/12 14:35:27;;;;;;;6.95;4.95;;;;;;;;;;4965091;28;20047;-70
2023/03/12 14:38:16;;;;;;;6.32;5.28;;;;;;;;;;4970328;28;20061;-71
2023/03/12 14:40:51;;;;;;;5.43;4.90;;;;;;;;;;4971901;28;20485;-71
2023/03/12 14:43:27;;;;;;;7.05;4.60;;;;;;;;;;4937084;28;20055;-71
2023/03/12 14:45:58;;;;;;;5.50;4.18;;;;;;;;;;4966165;28;20082;-71
2023/03/12 14:48:36;;;;;;;5.55;4.95;;;;;;;;;;4968272;28;20162;-72
2023/03/12 14:51:04;;;;;;;5.55;4.90;;;;;;;;;;4967290;28;20084;-71
2023/03/12 14:53:37;;;;;;;5.53;4.72;;;;;;;;;;4966638;28;20046;-71
2023/03/12 14:56:33;;;;;;;6.13;5.03;;;;;;;;;;4965315;28;20042;-72
2023/03/12 14:59:19;;;;;;;5.88;5.28;;;;;;;;;;4966011;28;20054;-73
2023/03/12 15:01:45;;;;;;;5.45;4.60;;;;;;;;;;4959822;28;20560;-72
2023/03/12 15:04:16;;;;;;;5.97;4.53;;;;;;;;;;4960028;28;20161;-71
2023/03/12 15:06:48;;;;;;;5.72;4.88;;;;;;;;;;4961438;28;20510;-70